sensor_id;sensor_type;location;lat;lon;timestamp;pressure;altitude;pressure_sealevel;temperature;humidity
56737;BME280;42618;51.226;4.910;2023-09-07T00:00:49;49555.56;;;-146.94;75.47
56737;BME280;42618;51.226;4.910;2023-09-07T00:03:16;49551.56;;;-146.94;74.36
56737;BME280;42618;51.226;4.910;2023-09-07T00:05:43;49567.53;;;-146.94;75.40
56737;BME280;42618;51.226;4.910;2023-09-07T00:08:11;49583.47;;;-146.94;76.39
56737;BME280;42618;51.226;4.910;2023-09-07T00:10:38;49553.56;;;-146.94;75.21
56737;BME280;42618;51.226;4.910;2023-09-07T00:13:05;49599.41;;;-146.94;75.47
56737;BME280;42618;51.226;4.910;2023-09-07T00:15:36;49559.56;;;-146.94;75.83
56737;BME280;42618;51.226;4.910;2023-09-07T00:18:04;49603.41;;;-146.94;77.12
56737;BME280;42618;51.226;4.910;2023-09-07T00:20:31;49579.47;;;-146.94;76.87
56737;BME280;42618;51.226;4.910;2023-09-07T00:23:00;49587.47;;;-146.94;77.86
56737;BME280;42618;51.226;4.910;2023-09-07T00:25:27;49567.53;;;-146.94;78.67
56737;BME280;42618;51.226;4.910;2023-09-07T00:27:54;49565.53;;;-146.94;78.95
56737;BME280;42618;51.226;4.910;2023-09-07T00:30:21;49563.53;;;-146.94;79.23
56737;BME280;42618;51.226;4.910;2023-09-07T00:32:48;49555.56;;;-146.94;80.32
56737;BME280;42618;51.226;4.910;2023-09-07T00:35:15;49575.50;;;-146.94;80.94
56737;BME280;42618;51.226;4.910;2023-09-07T00:37:41;49559.56;;;-146.94;80.44
56737;BME280;42618;51.226;4.910;2023-09-07T00:40:08;49639.28;;;-146.94;81.55
56737;BME280;42618;51.226;4.910;2023-09-07T00:42:36;49611.38;;;-146.94;82.43
56737;BME280;42618;51.226;4.910;2023-09-07T00:45:03;49603.41;;;-146.94;82.64
56737;BME280;42618;51.226;4.910;2023-09-07T00:47:33;49583.47;;;-146.94;83.37
56737;BME280;42618;51.226;4.910;2023-09-07T00:50:03;49607.41;;;-146.94;83.72
56737;BME280;42618;51.226;4.910;2023-09-07T00:52:33;49569.50;;;-146.94;83.82
56737;BME280;42618;51.226;4.910;2023-09-07T00:55:02;49591.44;;;-146.94;84.04
56737;BME280;42618;51.226;4.910;2023-09-07T00:57:31;49567.53;;;-146.94;83.95
56737;BME280;42618;51.226;4.910;2023-09-07T00:59:58;49621.34;;;-146.94;83.70
56737;BME280;42618;51.226;4.910;2023-09-07T01:02:25;49623.34;;;-146.94;82.36
56737;BME280;42618;51.226;4.910;2023-09-07T01:04:53;49591.44;;;-146.94;83.03
56737;BME280;42618;51.226;4.910;2023-09-07T01:10:00;49607.41;;;-146.94;83.47
56737;BME280;42618;51.226;4.910;2023-09-07T01:12:30;49615.38;;;-146.94;83.78
56737;BME280;42618;51.226;4.910;2023-09-07T01:14:57;49559.56;;;-146.94;83.93
56737;BME280;42618;51.226;4.910;2023-09-07T01:17:25;49613.38;;;-146.94;84.09
56737;BME280;42618;51.226;4.910;2023-09-07T01:19:52;49575.50;;;-146.94;86.06
56737;BME280;42618;51.226;4.910;2023-09-07T01:22:20;49607.41;;;-146.94;86.12
56737;BME280;42618;51.226;4.910;2023-09-07T01:24:51;49631.31;;;-146.94;87.77
56737;BME280;42618;51.226;4.910;2023-09-07T01:27:21;49603.41;;;-146.94;88.25
56737;BME280;42618;51.226;4.910;2023-09-07T01:29:48;49607.41;;;-146.94;88.83
56737;BME280;42618;51.226;4.910;2023-09-07T01:32:14;49603.41;;;-146.94;89.60
56737;BME280;42618;51.226;4.910;2023-09-07T01:34:41;49593.44;;;-146.94;90.35
56737;BME280;42618;51.226;4.910;2023-09-07T01:37:08;49597.44;;;-146.94;90.62
56737;BME280;42618;51.226;4.910;2023-09-07T01:39:35;49591.44;;;-146.94;90.68
56737;BME280;42618;51.226;4.910;2023-09-07T01:42:02;49601.41;;;-146.94;90.34
56737;BME280;42618;51.226;4.910;2023-09-07T01:44:29;49619.34;;;-146.94;90.18
56737;BME280;42618;51.226;4.910;2023-09-07T01:46:56;49615.38;;;-146.94;89.76
56737;BME280;42618;51.226;4.910;2023-09-07T01:49:23;49623.34;;;-146.94;89.51
56737;BME280;42618;51.226;4.910;2023-09-07T01:51:53;49625.34;;;-146.94;90.26
56737;BME280;42618;51.226;4.910;2023-09-07T01:54:21;49587.47;;;-146.94;90.53
56737;BME280;42618;51.226;4.910;2023-09-07T01:56:48;49617.38;;;-146.94;91.07
56737;BME280;42618;51.226;4.910;2023-09-07T01:59:15;49597.44;;;-146.94;91.37
56737;BME280;42618;51.226;4.910;2023-09-07T02:01:42;49637.28;;;-146.94;91.23
56737;BME280;42618;51.226;4.910;2023-09-07T02:04:09;49587.47;;;-146.94;91.80
56737;BME280;42618;51.226;4.910;2023-09-07T02:06:36;49611.38;;;-146.94;92.37
56737;BME280;42618;51.226;4.910;2023-09-07T02:09:02;49587.47;;;-146.94;92.47
56737;BME280;42618;51.226;4.910;2023-09-07T02:11:31;49585.47;;;-146.94;92.94
56737;BME280;42618;51.226;4.910;2023-09-07T02:13:57;49631.31;;;-146.94;91.98
56737;BME280;42618;51.226;4.910;2023-09-07T02:16:24;49607.41;;;-146.94;90.78
56737;BME280;42618;51.226;4.910;2023-09-07T02:19:00;49639.28;;;-146.94;90.62
56737;BME280;42618;51.226;4.910;2023-09-07T02:21:27;49629.31;;;-146.94;91.05
56737;BME280;42618;51.226;4.910;2023-09-07T02:23:54;49615.38;;;-146.94;91.23
56737;BME280;42618;51.226;4.910;2023-09-07T02:26:21;49617.38;;;-146.94;92.38
56737;BME280;42618;51.226;4.910;2023-09-07T02:28:48;49627.31;;;-146.94;92.58
56737;BME280;42618;51.226;4.910;2023-09-07T02:31:15;49619.34;;;-146.94;92.03
56737;BME280;42618;51.226;4.910;2023-09-07T02:33:42;49623.34;;;-146.94;91.54
56737;BME280;42618;51.226;4.910;2023-09-07T02:36:08;49635.31;;;-146.94;91.62
56737;BME280;42618;51.226;4.910;2023-09-07T02:38:35;49591.44;;;-146.94;92.64
56737;BME280;42618;51.226;4.910;2023-09-07T02:41:02;49631.31;;;-146.94;92.75
56737;BME280;42618;51.226;4.910;2023-09-07T02:43:29;49641.28;;;-146.94;93.86
56737;BME280;42618;51.226;4.910;2023-09-07T02:45:58;49603.41;;;-146.94;93.91
56737;BME280;42618;51.226;4.910;2023-09-07T02:48:25;49631.31;;;-146.94;94.97
56737;BME280;42618;51.226;4.910;2023-09-07T02:50:52;49639.28;;;-146.94;94.22
56737;BME280;42618;51.226;4.910;2023-09-07T02:53:21;49603.41;;;-146.94;95.02
56737;BME280;42618;51.226;4.910;2023-09-07T02:55:48;49649.25;;;-146.94;95.32
56737;BME280;42618;51.226;4.910;2023-09-07T02:58:16;49629.31;;;-146.94;95.02
56737;BME280;42618;51.226;4.910;2023-09-07T03:00:43;49621.34;;;-146.94;95.06
56737;BME280;42618;51.226;4.910;2023-09-07T03:03:13;49637.28;;;-146.94;95.09
56737;BME280;42618;51.226;4.910;2023-09-07T03:05:42;49605.41;;;-146.94;95.24
56737;BME280;42618;51.226;4.910;2023-09-07T03:08:09;49599.41;;;-146.94;95.14
56737;BME280;42618;51.226;4.910;2023-09-07T03:10:37;49611.38;;;-146.94;94.77
56737;BME280;42618;51.226;4.910;2023-09-07T03:13:07;49613.38;;;-146.94;95.98
56737;BME280;42618;51.226;4.910;2023-09-07T03:15:34;49643.28;;;-146.94;95.60
56737;BME280;42618;51.226;4.910;2023-09-07T03:18:05;49647.25;;;-146.94;95.87
56737;BME280;42618;51.226;4.910;2023-09-07T03:20:33;49637.28;;;-146.94;95.60
56737;BME280;42618;51.226;4.910;2023-09-07T03:23:02;49639.28;;;-146.94;96.39
56737;BME280;42618;51.226;4.910;2023-09-07T03:25:30;49643.28;;;-146.94;96.83
56737;BME280;42618;51.226;4.910;2023-09-07T03:27:57;49665.22;;;-146.94;97.50
56737;BME280;42618;51.226;4.910;2023-09-07T03:30:24;49655.25;;;-146.94;97.32
56737;BME280;42618;51.226;4.910;2023-09-07T03:32:53;49635.31;;;-146.94;97.84
56737;BME280;42618;51.226;4.910;2023-09-07T03:35:20;49627.31;;;-146.94;97.18
56737;BME280;42618;51.226;4.910;2023-09-07T03:37:47;49635.31;;;-146.94;97.33
56737;BME280;42618;51.226;4.910;2023-09-07T03:40:13;49623.34;;;-146.94;97.66
56737;BME280;42618;51.226;4.910;2023-09-07T03:42:40;49619.34;;;-146.94;96.37
56737;BME280;42618;51.226;4.910;2023-09-07T03:45:08;49621.34;;;-146.94;96.96
56737;BME280;42618;51.226;4.910;2023-09-07T03:47:35;49655.25;;;-146.94;97.73
56737;BME280;42618;51.226;4.910;2023-09-07T03:50:02;49653.25;;;-146.94;97.43
56737;BME280;42618;51.226;4.910;2023-09-07T03:52:30;49631.31;;;-146.94;97.73
56737;BME280;42618;51.226;4.910;2023-09-07T03:55:00;49649.25;;;-146.94;96.54
56737;BME280;42618;51.226;4.910;2023-09-07T03:57:27;49623.34;;;-146.94;94.96
56737;BME280;42618;51.226;4.910;2023-09-07T03:59:56;49627.31;;;-146.94;93.81
56737;BME280;42618;51.226;4.910;2023-09-07T04:02:23;49617.38;;;-146.94;94.03
56737;BME280;42618;51.226;4.910;2023-09-07T04:04:52;49635.31;;;-146.94;94.40
56737;BME280;42618;51.226;4.910;2023-09-07T04:07:19;49637.28;;;-146.94;94.57
56737;BME280;42618;51.226;4.910;2023-09-07T04:09:47;49661.22;;;-146.94;95.29
56737;BME280;42618;51.226;4.910;2023-09-07T04:12:14;49631.31;;;-146.94;95.19
56737;BME280;42618;51.226;4.910;2023-09-07T04:14:41;49635.31;;;-146.94;95.59
56737;BME280;42618;51.226;4.910;2023-09-07T04:17:09;49627.31;;;-146.94;96.61
56737;BME280;42618;51.226;4.910;2023-09-07T04:19:36;49623.34;;;-146.94;97.63
56737;BME280;42618;51.226;4.910;2023-09-07T04:22:03;49637.28;;;-146.94;98.95
56737;BME280;42618;51.226;4.910;2023-09-07T04:24:30;49621.34;;;-146.94;98.97
56737;BME280;42618;51.226;4.910;2023-09-07T04:27:00;49663.22;;;-146.94;98.07
56737;BME280;42618;51.226;4.910;2023-09-07T04:29:29;49639.28;;;-146.94;97.80
56737;BME280;42618;51.226;4.910;2023-09-07T04:31:56;49653.25;;;-146.94;99.08
56737;BME280;42618;51.226;4.910;2023-09-07T04:34:23;49643.28;;;-146.94;98.67
56737;BME280;42618;51.226;4.910;2023-09-07T04:36:52;49679.16;;;-146.94;97.98
56737;BME280;42618;51.226;4.910;2023-09-07T04:39:19;49615.38;;;-146.94;98.50
56737;BME280;42618;51.226;4.910;2023-09-07T04:41:46;49631.31;;;-146.94;97.04
56737;BME280;42618;51.226;4.910;2023-09-07T04:44:14;49643.28;;;-146.94;98.77
56737;BME280;42618;51.226;4.910;2023-09-07T04:46:41;49651.25;;;-146.94;98.23
56737;BME280;42618;51.226;4.910;2023-09-07T04:49:09;49603.41;;;-146.94;97.77
56737;BME280;42618;51.226;4.910;2023-09-07T04:51:36;49671.19;;;-146.94;98.59
56737;BME280;42618;51.226;4.910;2023-09-07T04:54:03;49625.34;;;-146.94;97.83
56737;BME280;42618;51.226;4.910;2023-09-07T04:56:30;49659.22;;;-146.94;99.55
56737;BME280;42618;51.226;4.910;2023-09-07T04:58:57;49653.25;;;-146.94;99.72
56737;BME280;42618;51.226;4.910;2023-09-07T05:01:25;49693.13;;;-146.94;99.79
56737;BME280;42618;51.226;4.910;2023-09-07T05:03:53;49625.34;;;-146.94;100.00
56737;BME280;42618;51.226;4.910;2023-09-07T05:06:21;49679.16;;;-146.94;100.00
56737;BME280;42618;51.226;4.910;2023-09-07T05:08:50;49627.31;;;-146.94;100.00
56737;BME280;42618;51.226;4.910;2023-09-07T05:11:17;49629.31;;;-146.94;100.00
56737;BME280;42618;51.226;4.910;2023-09-07T05:13:44;49657.22;;;-146.94;99.09
56737;BME280;42618;51.226;4.910;2023-09-07T05:16:11;49649.25;;;-146.94;98.82
56737;BME280;42618;51.226;4.910;2023-09-07T05:18:41;49675.19;;;-146.94;99.94
56737;BME280;42618;51.226;4.910;2023-09-07T05:21:14;49677.16;;;-146.94;99.04
56737;BME280;42618;51.226;4.910;2023-09-07T05:23:42;49655.25;;;-146.94;100.00
56737;BME280;42618;51.226;4.910;2023-09-07T05:26:09;49647.25;;;-146.94;100.00
56737;BME280;42618;51.226;4.910;2023-09-07T05:28:36;49653.25;;;-146.94;100.00
56737;BME280;42618;51.226;4.910;2023-09-07T05:31:03;49669.19;;;-146.94;100.00
56737;BME280;42618;51.226;4.910;2023-09-07T05:33:31;49655.25;;;-146.94;100.00
56737;BME280;42618;51.226;4.910;2023-09-07T05:35:58;49647.25;;;-146.94;100.00
56737;BME280;42618;51.226;4.910;2023-09-07T05:38:25;49655.25;;;-146.94;100.00
56737;BME280;42618;51.226;4.910;2023-09-07T05:40:53;49635.31;;;-146.94;99.74
56737;BME280;42618;51.226;4.910;2023-09-07T05:43:22;49653.25;;;-146.94;100.00
56737;BME280;42618;51.226;4.910;2023-09-07T05:45:50;49647.25;;;-146.94;100.00
56737;BME280;42618;51.226;4.910;2023-09-07T05:48:16;49659.22;;;-146.94;100.00
56737;BME280;42618;51.226;4.910;2023-09-07T05:50:44;49643.28;;;-146.94;100.00
56737;BME280;42618;51.226;4.910;2023-09-07T05:53:12;49651.25;;;-146.94;100.00
56737;BME280;42618;51.226;4.910;2023-09-07T05:55:39;49637.28;;;-146.94;100.00
56737;BME280;42618;51.226;4.910;2023-09-07T05:58:07;49673.19;;;-146.94;100.00
56737;BME280;42618;51.226;4.910;2023-09-07T06:00:38;49635.31;;;-146.94;100.00
56737;BME280;42618;51.226;4.910;2023-09-07T06:03:07;49639.28;;;-146.94;100.00
56737;BME280;42618;51.226;4.910;2023-09-07T06:05:35;49639.28;;;-146.94;100.00
56737;BME280;42618;51.226;4.910;2023-09-07T06:08:04;49627.31;;;-146.94;100.00
56737;BME280;42618;51.226;4.910;2023-09-07T06:10:33;49673.19;;;-146.94;100.00
56737;BME280;42618;51.226;4.910;2023-09-07T06:13:01;49667.19;;;-146.94;100.00
56737;BME280;42618;51.226;4.910;2023-09-07T06:15:30;49649.25;;;-146.94;100.00
56737;BME280;42618;51.226;4.910;2023-09-07T06:17:57;49639.28;;;-146.94;100.00
56737;BME280;42618;51.226;4.910;2023-09-07T06:20:25;49649.25;;;-146.94;100.00
56737;BME280;42618;51.226;4.910;2023-09-07T06:22:53;49603.41;;;-146.94;100.00
56737;BME280;42618;51.226;4.910;2023-09-07T06:25:20;49653.25;;;-146.94;100.00
56737;BME280;42618;51.226;4.910;2023-09-07T06:27:48;49667.19;;;-146.94;100.00
56737;BME280;42618;51.226;4.910;2023-09-07T06:30:15;49631.31;;;-146.94;100.00
56737;BME280;42618;51.226;4.910;2023-09-07T06:32:42;49653.25;;;-146.94;100.00
56737;BME280;42618;51.226;4.910;2023-09-07T06:35:10;49681.16;;;-146.94;100.00
56737;BME280;42618;51.226;4.910;2023-09-07T06:37:37;49615.38;;;-146.94;99.68
56737;BME280;42618;51.226;4.910;2023-09-07T06:40:09;49601.41;;;-146.94;99.12
56737;BME280;42618;51.226;4.910;2023-09-07T06:42:37;49617.38;;;-146.94;98.14
56737;BME280;42618;51.226;4.910;2023-09-07T06:45:10;49639.28;;;-146.94;98.39
56737;BME280;42618;51.226;4.910;2023-09-07T06:47:37;49639.28;;;-146.94;95.76
56737;BME280;42618;51.226;4.910;2023-09-07T06:50:06;49617.38;;;-146.94;95.59
56737;BME280;42618;51.226;4.910;2023-09-07T06:52:33;49627.31;;;-146.94;94.27
56737;BME280;42618;51.226;4.910;2023-09-07T06:55:00;49607.41;;;-146.94;93.20
56737;BME280;42618;51.226;4.910;2023-09-07T06:57:27;49631.31;;;-146.94;93.53
56737;BME280;42618;51.226;4.910;2023-09-07T06:59:54;49631.31;;;-146.94;93.70
56737;BME280;42618;51.226;4.910;2023-09-07T07:02:21;49615.38;;;-146.94;92.92
56737;BME280;42618;51.226;4.910;2023-09-07T07:04:48;49623.34;;;-146.94;91.19
56737;BME280;42618;51.226;4.910;2023-09-07T07:07:17;49621.34;;;-146.94;90.55
56737;BME280;42618;51.226;4.910;2023-09-07T07:09:44;49619.34;;;-146.94;89.50
56737;BME280;42618;51.226;4.910;2023-09-07T07:12:11;49601.41;;;-146.94;89.33
56737;BME280;42618;51.226;4.910;2023-09-07T07:14:39;49655.25;;;-146.94;89.95
56737;BME280;42618;51.226;4.910;2023-09-07T07:17:05;49555.56;;;-146.94;89.30
56737;BME280;42618;51.226;4.910;2023-09-07T07:19:34;49615.38;;;-146.94;89.13
56737;BME280;42618;51.226;4.910;2023-09-07T07:22:02;49609.38;;;-146.94;88.59
56737;BME280;42618;51.226;4.910;2023-09-07T07:24:30;49563.53;;;-146.94;87.53
56737;BME280;42618;51.226;4.910;2023-09-07T07:26:57;49625.34;;;-146.94;88.48
56737;BME280;42618;51.226;4.910;2023-09-07T07:29:24;49613.38;;;-146.94;86.54
56737;BME280;42618;51.226;4.910;2023-09-07T07:31:52;49599.41;;;-146.94;85.19
56737;BME280;42618;51.226;4.910;2023-09-07T07:34:19;49601.41;;;-146.94;86.31
56737;BME280;42618;51.226;4.910;2023-09-07T07:36:45;49597.44;;;-146.94;84.96
56737;BME280;42618;51.226;4.910;2023-09-07T07:39:13;49593.44;;;-146.94;84.71
56737;BME280;42618;51.226;4.910;2023-09-07T07:41:40;49619.34;;;-146.94;83.52
56737;BME280;42618;51.226;4.910;2023-09-07T07:44:09;49615.38;;;-146.94;82.13
56737;BME280;42618;51.226;4.910;2023-09-07T07:46:36;49559.56;;;-146.94;80.92
56737;BME280;42618;51.226;4.910;2023-09-07T07:49:03;49607.41;;;-146.94;81.11
56737;BME280;42618;51.226;4.910;2023-09-07T07:51:30;49579.47;;;-146.94;81.34
56737;BME280;42618;51.226;4.910;2023-09-07T07:53:57;49569.50;;;-146.94;80.33
56737;BME280;42618;51.226;4.910;2023-09-07T07:56:24;49587.47;;;-146.94;79.53
56737;BME280;42618;51.226;4.910;2023-09-07T07:58:54;49587.47;;;-146.94;78.66
56737;BME280;42618;51.226;4.910;2023-09-07T08:01:20;49609.38;;;-146.94;77.96
56737;BME280;42618;51.226;4.910;2023-09-07T08:03:50;49591.44;;;-146.94;77.75
56737;BME280;42618;51.226;4.910;2023-09-07T08:06:18;49603.41;;;-146.94;77.35
56737;BME280;42618;51.226;4.910;2023-09-07T08:08:45;49579.47;;;-146.94;76.85
56737;BME280;42618;51.226;4.910;2023-09-07T08:11:13;49587.47;;;-146.94;76.82
56737;BME280;42618;51.226;4.910;2023-09-07T08:13:41;49587.47;;;-146.94;74.20
56737;BME280;42618;51.226;4.910;2023-09-07T08:16:08;49577.50;;;-146.94;74.63
56737;BME280;42618;51.226;4.910;2023-09-07T08:18:41;49579.47;;;-146.94;73.57
56737;BME280;42618;51.226;4.910;2023-09-07T08:21:09;49559.56;;;-146.94;74.50
56737;BME280;42618;51.226;4.910;2023-09-07T08:23:36;49561.53;;;-146.94;71.96
56737;BME280;42618;51.226;4.910;2023-09-07T08:26:03;49567.53;;;-146.94;71.19
56737;BME280;42618;51.226;4.910;2023-09-07T08:28:32;49599.41;;;-146.94;69.69
56737;BME280;42618;51.226;4.910;2023-09-07T08:30:59;49581.47;;;-146.94;68.97
56737;BME280;42618;51.226;4.910;2023-09-07T08:33:27;49579.47;;;-146.94;69.70
56737;BME280;42618;51.226;4.910;2023-09-07T08:36:02;49587.47;;;-146.94;68.59
56737;BME280;42618;51.226;4.910;2023-09-07T08:38:30;49557.56;;;-146.94;68.64
56737;BME280;42618;51.226;4.910;2023-09-07T08:41:01;49547.59;;;-146.94;66.62
56737;BME280;42618;51.226;4.910;2023-09-07T08:43:29;49587.47;;;-146.94;67.62
56737;BME280;42618;51.226;4.910;2023-09-07T08:46:15;49563.53;;;-146.94;67.02
56737;BME280;42618;51.226;4.910;2023-09-07T08:48:42;49563.53;;;-146.94;66.74
56737;BME280;42618;51.226;4.910;2023-09-07T08:51:11;49539.63;;;-146.94;64.74
56737;BME280;42618;51.226;4.910;2023-09-07T08:53:39;49523.66;;;-146.94;65.93
56737;BME280;42618;51.226;4.910;2023-09-07T08:56:07;49511.72;;;-146.94;63.66
56737;BME280;42618;51.226;4.910;2023-09-07T08:58:36;49499.75;;;-146.94;62.96
56737;BME280;42618;51.226;4.910;2023-09-07T09:01:03;49529.66;;;-146.94;62.78
56737;BME280;42618;51.226;4.910;2023-09-07T09:03:35;49545.59;;;-146.94;59.63
56737;BME280;42618;51.226;4.910;2023-09-07T09:06:06;49563.53;;;-146.94;58.07
56737;BME280;42618;51.226;4.910;2023-09-07T09:11:17;49519.69;;;-146.94;56.34
56737;BME280;42618;51.226;4.910;2023-09-07T09:13:44;49543.59;;;-146.94;57.02
56737;BME280;42618;51.226;4.910;2023-09-07T09:16:12;49547.59;;;-146.94;55.75
56737;BME280;42618;51.226;4.910;2023-09-07T09:19:08;49539.63;;;-146.94;57.95
56737;BME280;42618;51.226;4.910;2023-09-07T09:21:35;49527.66;;;-146.94;55.80
56737;BME280;42618;51.226;4.910;2023-09-07T09:24:02;49525.66;;;-146.94;55.58
56737;BME280;42618;51.226;4.910;2023-09-07T09:26:29;49553.56;;;-146.94;53.71
56737;BME280;42618;51.226;4.910;2023-09-07T09:28:56;49525.66;;;-146.94;53.96
56737;BME280;42618;51.226;4.910;2023-09-07T09:31:24;49567.53;;;-146.94;53.15
56737;BME280;42618;51.226;4.910;2023-09-07T09:33:51;49525.66;;;-146.94;52.81
56737;BME280;42618;51.226;4.910;2023-09-07T09:36:18;49523.66;;;-146.94;53.00
56737;BME280;42618;51.226;4.910;2023-09-07T09:38:50;49487.78;;;-146.94;52.70
56737;BME280;42618;51.226;4.910;2023-09-07T09:41:17;49531.63;;;-146.94;50.19
56737;BME280;42618;51.226;4.910;2023-09-07T09:43:45;49481.81;;;-146.94;51.06
56737;BME280;42618;51.226;4.910;2023-09-07T09:46:15;49477.81;;;-146.94;49.50
56737;BME280;42618;51.226;4.910;2023-09-07T09:48:45;49507.72;;;-146.94;48.19
56737;BME280;42618;51.226;4.910;2023-09-07T09:51:14;49477.81;;;-146.94;47.96
56737;BME280;42618;51.226;4.910;2023-09-07T09:53:42;49503.72;;;-146.94;46.99
56737;BME280;42618;51.226;4.910;2023-09-07T09:56:09;49513.69;;;-146.94;47.94
56737;BME280;42618;51.226;4.910;2023-09-07T09:58:36;49547.59;;;-146.94;46.37
56737;BME280;42618;51.226;4.910;2023-09-07T10:01:04;49511.72;;;-146.94;47.09
56737;BME280;42618;51.226;4.910;2023-09-07T10:03:34;49513.69;;;-146.94;45.40
56737;BME280;42618;51.226;4.910;2023-09-07T10:06:28;49487.78;;;-146.94;45.20
56737;BME280;42618;51.226;4.910;2023-09-07T10:09:05;49491.78;;;-146.94;46.00
56737;BME280;42618;51.226;4.910;2023-09-07T10:11:35;49473.84;;;-146.94;44.34
56737;BME280;42618;51.226;4.910;2023-09-07T10:14:06;49493.75;;;-146.94;43.42
56737;BME280;42618;51.226;4.910;2023-09-07T10:16:47;49495.75;;;-146.94;43.42
56737;BME280;42618;51.226;4.910;2023-09-07T10:19:21;49483.81;;;-146.94;44.23
56737;BME280;42618;51.226;4.910;2023-09-07T10:21:49;49473.84;;;-146.94;41.61
56737;BME280;42618;51.226;4.910;2023-09-07T10:24:29;49469.84;;;-146.94;42.45
56737;BME280;42618;51.226;4.910;2023-09-07T10:27:03;49487.78;;;-146.94;42.58
56737;BME280;42618;51.226;4.910;2023-09-07T10:29:44;49475.81;;;-146.94;42.34
56737;BME280;42618;51.226;4.910;2023-09-07T10:32:13;49475.81;;;-146.94;40.14
56737;BME280;42618;51.226;4.910;2023-09-07T10:34:46;49497.75;;;-146.94;39.99
56737;BME280;42618;51.226;4.910;2023-09-07T10:37:13;49467.84;;;-146.94;40.21
56737;BME280;42618;51.226;4.910;2023-09-07T10:39:40;49475.81;;;-146.94;40.25
56737;BME280;42618;51.226;4.910;2023-09-07T10:42:23;49451.91;;;-146.94;40.34
56737;BME280;42618;51.226;4.910;2023-09-07T10:44:51;49471.84;;;-146.94;41.09
56737;BME280;42618;51.226;4.910;2023-09-07T10:47:18;49463.88;;;-146.94;38.78
56737;BME280;42618;51.226;4.910;2023-09-07T10:49:45;49457.88;;;-146.94;38.58
56737;BME280;42618;51.226;4.910;2023-09-07T10:52:12;49453.91;;;-146.94;38.25
56737;BME280;42618;51.226;4.910;2023-09-07T10:54:39;49441.94;;;-146.94;36.26
56737;BME280;42618;51.226;4.910;2023-09-07T10:57:10;49465.84;;;-146.94;37.88
56737;BME280;42618;51.226;4.910;2023-09-07T10:59:37;49455.88;;;-146.94;37.53
56737;BME280;42618;51.226;4.910;2023-09-07T11:02:05;49475.81;;;-146.94;36.87
56737;BME280;42618;51.226;4.910;2023-09-07T11:04:32;49475.81;;;-146.94;37.82
56737;BME280;42618;51.226;4.910;2023-09-07T11:07:01;49461.88;;;-146.94;37.24
56737;BME280;42618;51.226;4.910;2023-09-07T11:09:30;49455.88;;;-146.94;35.79
56737;BME280;42618;51.226;4.910;2023-09-07T11:12:03;49491.78;;;-146.94;36.37
56737;BME280;42618;51.226;4.910;2023-09-07T11:14:29;49441.94;;;-146.94;36.68
56737;BME280;42618;51.226;4.910;2023-09-07T11:16:57;49467.84;;;-146.94;36.45
56737;BME280;42618;51.226;4.910;2023-09-07T11:19:23;49449.91;;;-146.94;36.36
56737;BME280;42618;51.226;4.910;2023-09-07T11:21:53;49465.84;;;-146.94;37.25
56737;BME280;42618;51.226;4.910;2023-09-07T11:24:20;49467.84;;;-146.94;37.81
56737;BME280;42618;51.226;4.910;2023-09-07T11:26:47;49451.91;;;-146.94;37.47
56737;BME280;42618;51.226;4.910;2023-09-07T11:29:15;49465.84;;;-146.94;37.73
56737;BME280;42618;51.226;4.910;2023-09-07T11:31:43;49443.94;;;-146.94;36.36
56737;BME280;42618;51.226;4.910;2023-09-07T11:34:12;49429.97;;;-146.94;35.69
56737;BME280;42618;51.226;4.910;2023-09-07T11:36:40;49441.94;;;-146.94;36.34
56737;BME280;42618;51.226;4.910;2023-09-07T11:39:07;49447.91;;;-146.94;37.01
56737;BME280;42618;51.226;4.910;2023-09-07T11:41:44;49427.97;;;-146.94;36.17
56737;BME280;42618;51.226;4.910;2023-09-07T11:44:11;49439.94;;;-146.94;36.40
56737;BME280;42618;51.226;4.910;2023-09-07T11:46:39;49449.91;;;-146.94;35.51
56737;BME280;42618;51.226;4.910;2023-09-07T11:49:06;49439.94;;;-146.94;35.81
56737;BME280;42618;51.226;4.910;2023-09-07T11:51:33;49435.97;;;-146.94;35.62
56737;BME280;42618;51.226;4.910;2023-09-07T11:54:02;49427.97;;;-146.94;36.17
56737;BME280;42618;51.226;4.910;2023-09-07T11:56:29;49439.94;;;-146.94;36.26
56737;BME280;42618;51.226;4.910;2023-09-07T11:58:56;49420.00;;;-146.94;35.74
56737;BME280;42618;51.226;4.910;2023-09-07T12:01:23;49435.97;;;-146.94;35.79
56737;BME280;42618;51.226;4.910;2023-09-07T12:03:49;49459.88;;;-146.94;36.27
56737;BME280;42618;51.226;4.910;2023-09-07T12:06:17;49447.91;;;-146.94;36.26
56737;BME280;42618;51.226;4.910;2023-09-07T12:09:00;49390.09;;;-146.94;34.99
56737;BME280;42618;51.226;4.910;2023-09-07T12:11:27;49447.91;;;-146.94;35.02
56737;BME280;42618;51.226;4.910;2023-09-07T12:13:54;49420.00;;;-146.94;35.84
56737;BME280;42618;51.226;4.910;2023-09-07T12:16:21;49439.94;;;-146.94;35.09
56737;BME280;42618;51.226;4.910;2023-09-07T12:18:48;49412.03;;;-146.94;35.02
56737;BME280;42618;51.226;4.910;2023-09-07T12:21:15;49398.09;;;-146.94;34.58
56737;BME280;42618;51.226;4.910;2023-09-07T12:23:42;49412.03;;;-146.94;33.83
56737;BME280;42618;51.226;4.910;2023-09-07T12:26:08;49453.91;;;-146.94;33.79
56737;BME280;42618;51.226;4.910;2023-09-07T12:28:35;49402.06;;;-146.94;33.94
56737;BME280;42618;51.226;4.910;2023-09-07T12:31:03;49437.94;;;-146.94;33.83
56737;BME280;42618;51.226;4.910;2023-09-07T12:33:31;49410.03;;;-146.94;33.09
56737;BME280;42618;51.226;4.910;2023-09-07T12:35:59;49431.97;;;-146.94;32.47
56737;BME280;42618;51.226;4.910;2023-09-07T12:38:26;49422.00;;;-146.94;32.45
56737;BME280;42618;51.226;4.910;2023-09-07T12:40:55;49422.00;;;-146.94;31.91
56737;BME280;42618;51.226;4.910;2023-09-07T12:43:23;49412.03;;;-146.94;33.53
56737;BME280;42618;51.226;4.910;2023-09-07T12:45:51;49416.03;;;-146.94;33.77
56737;BME280;42618;51.226;4.910;2023-09-07T12:48:19;49402.06;;;-146.94;33.23